Airfield :
LOGIN :

Register | Disclaimer

   EN    FR    IT 

 










Legend :    VFR   Marginal VFR   IFR   Intensive IFR   Very Intensive IFR
Visi :
Ceiling :
>= 8 km
>= 3000ft
5 to 8 km
1000 to 3000 ft
1500m to 5 km
500 to 1000 ft
800 to 1500m
200 to 500 ft
< 800m
< 200 ft
Symbols :   Thunderstorms  Fog  Heavy snow  Heavy precipitations  Wind > 20 kt
SIGMETs :     Misc.  Thunderstorms  Icing  Turbulence  Mountain Waves  Volcanic Ashes






- Airport Elevation : 84 ft


LFBC - Cazaux

CURRENT METAR :
  • 030930Z AUTO 33008KT 290V360 9999 SCT030 BKN040 OVC047 21/14 Q1019 TEMPO 4000 -SHRA BKN030TCU

EXPIRED METARs :
  • 030900Z AUTO VRB03KT 9999 BKN026 BKN032 BKN041 21/14 Q1019 TEMPO 4000 -SHRA BKN030TCU
  • 030830Z AUTO 21004KT 170V270 9999 BKN027 BKN032 OVC052 20/14 Q1019 TEMPO 4000 -SHRA BKN030TCU
  • 030800Z AUTO 19003KT 150V230 9999 SCT029 BKN050 BKN130 20/14 Q1019 NOSIG
  • 030730Z AUTO VRB03KT 9999 OVC025 20/13 Q1019 NOSIG
  • 030700Z AUTO 00000KT 9999 SCT026 19/13 Q1018 NOSIG
  • 030630Z AUTO 15002KT 9999 FEW030 BKN052 18/13 Q1018 NOSIG

TAF TAF LFBC
Valid from the 03 at 09:00 until the 04 at 09:00 UTC


030800Z 0309/0409 28005KT 9999 BKN030
TEMPO 0309/0316 29010G20KT 4000 -SHRA BKN030TCU



MET'MAP, your aeronautical weather chart ! - Copyright ORBIFLY December 2007 - Disclaimer

ORBIFLY MET'MAP TEAM :

Programming & Development : Alexandra Zaïnal
Concept & original design : Baudouin d'Aumeries
Assistance for programming : Marc-Olivier Méhu
Technical & hardware support : Manuel Goepfert

Contact : metmap@orbifly.com




SOURCES & CREDITS :

   NOAA